Time,TemperatureF,DewpointF,PressureIn,WindDirection,WindDirectionDegrees,WindSpeedMPH,WindSpeedGustMPH,Humidity,HourlyPrecipIn,Conditions,Clouds,dailyrainin,SoftwareType,DateUTC
2015-08-01 00:00:00,58.9,49.1,29.99,SW,236,0.0,0.0,70,0.00,CLR,FEW,0.00,WeatherDisplay:10.37,2015-08-01 05:00:00,
2015-08-01 00:05:00,58.7,48.9,29.99,SW,236,0.0,0.0,70,0.00,CLR,FEW,0.00,WeatherDisplay:10.37,2015-08-01 05:05:00,
2015-08-01 00:10:00,58.6,48.8,29.99,SW,236,0.0,0.0,70,0.00,CLR,FEW,0.00,WeatherDisplay:10.37,2015-08-01 05:10:00,
2015-08-01 00:15:00,58.5,49.1,29.99,SW,236,0.0,0.0,71,0.00,CLR,FEW,0.00,WeatherDisplay:10.37,2015-08-01 05:15:00,
2015-08-01 00:20:00,58.3,48.9,29.99,SW,236,0.0,0.0,71,0.00,CLR,FEW,0.00,WeatherDisplay:10.37,2015-08-01 05:20:00,
2015-08-01 00:25:00,58.2,49.2,29.99,SW,236,0.0,0.0,72,0.00,CLR,FEW,0.00,WeatherDisplay:10.37,2015-08-01 05:25:00,
2015-08-01 00:30:00,58.1,49.1,29.99,SW,236,0.0,0.0,72,0.00,CLR,FEW,0.00,WeatherDisplay:10.37,2015-08-01 05:30:00,
2015-08-01 00:35:00,58.1,49.1,29.99,SW,236,0.0,0.0,72,0.00,CLR,FEW,0.00,WeatherDisplay:10.37,2015-08-01 05:35:00,
2015-08-01 00:40:00,58.0,49.0,29.99,SW,236,0.0,0.0,72,0.00,CLR,FEW,0.00,WeatherDisplay:10.37,2015-08-01 05:40:00,
2015-08-01 00:45:00,57.9,48.9,29.99,SW,236,0.0,0.0,72,0.00,CLR,FEW,0.00,WeatherDisplay:10.37,2015-08-01 05:45:00,
2015-08-01 00:50:00,57.7,48.7,29.99,SW,236,0.0,0.0,72,0.00,CLR,FEW,0.00,WeatherDisplay:10.37,2015-08-01 05:50:00,
2015-08-01 00:55:00,57.6,49.0,29.99,SW,236,0.0,0.0,73,0.00,CLR,FEW,0.00,WeatherDisplay:10.37,2015-08-01 05:55:00,
2015-08-01 01:00:00,57.5,48.9,29.99,SW,236,0.0,0.0,73,0.00,CLR,FEW,0.00,WeatherDisplay:10.37,2015-08-01 06:00:00,
2015-08-01 01:05:00,57.4,48.8,29.99,SW,236,0.0,0.0,73,0.00,CLR,FEW,0.00,WeatherDisplay:10.37,2015-08-01 06:05:00,
2015-08-01 01:10:00,57.3,49.1,29.99,SW,236,0.0,0.0,74,0.00,CLR,FEW,0.00,WeatherDisplay:10.37,2015-08-01 06:10:00,
2015-08-01 01:15:00,57.2,49.0,29.99,SW,236,0.0,0.0,74,0.00,CLR,FEW,0.00,WeatherDisplay:10.37,2015-08-01 06:15:00,
2015-08-01 01:21:00,57.1,49.2,29.99,SW,236,0.0,0.0,75,0.00,CLR,FEW,0.00,WeatherDisplay:10.37,2015-08-01 06:21:00,
2015-08-01 01:26:00,57.1,49.6,29.99,SW,236,0.0,0.0,76,0.00,CLR,FEW,0.00,WeatherDisplay:10.37,2015-08-01 06:26:00,
2015-08-01 01:31:00,57.0,49.5,29.99,SW,236,0.0,0.0,76,0.00,CLR,FEW,0.00,WeatherDisplay:10.37,2015-08-01 06:31:00,
2015-08-01 01:36:00,57.0,49.5,29.99,SW,236,0.0,0.0,76,0.00,CLR,FEW,0.00,WeatherDisplay:10.37,2015-08-01 06:36:00,
2015-08-01 01:41:00,57.0,49.5,29.99,SW,236,0.0,0.0,76,0.00,CLR,FEW,0.00,WeatherDisplay:10.37,2015-08-01 06:41:00,
2015-08-01 01:46:00,56.9,49.8,29.99,SW,236,0.0,0.0,77,0.00,CLR,FEW,0.00,WeatherDisplay:10.37,2015-08-01 06:46:00,
2015-08-01 01:51:00,56.9,49.8,29.99,SW,236,0.0,0.0,77,0.00,CLR,FEW,0.00,WeatherDisplay:10.37,2015-08-01 06:51:00,
2015-08-01 01:56:00,56.8,49.3,29.99,SW,236,0.0,0.0,76,0.00,CLR,FEW,0.00,WeatherDisplay:10.37,2015-08-01 06:56:00,
2015-08-01 02:01:00,56.7,49.6,29.99,SW,236,0.0,0.0,77,0.00,CLR,FEW,0.00,WeatherDisplay:10.37,2015-08-01 07:01:00,
2015-08-01 02:06:00,56.6,49.5,29.99,SW,236,0.0,0.0,77,0.00,CLR,FEW,0.00,WeatherDisplay:10.37,2015-08-01 07:06:00,
2015-08-01 02:11:00,56.5,49.4,29.99,SW,236,0.0,0.0,77,0.00,CLR,FEW,0.00,WeatherDisplay:10.37,2015-08-01 07:11:00,
2015-08-01 02:16:00,56.4,49.6,29.98,SW,236,0.0,0.0,78,0.00,CLR,FEW,0.00,WeatherDisplay:10.37,2015-08-01 07:16:00,
2015-08-01 02:21:00,56.5,50.1,29.98,SW,236,0.0,0.0,79,0.00,CLR,FEW,0.00,WeatherDisplay:10.37,2015-08-01 07:21:00,
2015-08-01 02:26:00,56.6,50.2,29.98,SW,236,0.0,0.0,79,0.00,CLR,FEW,0.00,WeatherDisplay:10.37,2015-08-01 07:26:00,
2015-08-01 02:31:00,56.6,50.2,29.98,SW,236,0.0,0.0,79,0.00,CLR,FEW,0.00,WeatherDisplay:10.37,2015-08-01 07:31:00,
2015-08-01 02:36:00,56.6,50.5,29.98,SW,234,0.0,0.0,80,0.00,CLR,FEW,0.00,WeatherDisplay:10.37,2015-08-01 07:36:00,
2015-08-01 02:41:00,56.6,50.5,29.98,SW,234,0.0,0.0,80,0.00,CLR,FEW,0.00,WeatherDisplay:10.37,2015-08-01 07:41:00,
2015-08-01 02:46:00,56.6,50.5,29.98,WSW,243,0.5,0.5,80,0.00,CLR,FEW,0.00,WeatherDisplay:10.37,2015-08-01 07:46:00,
2015-08-01 02:51:00,56.7,50.6,29.98,WSW,237,0.0,0.0,80,0.00,CLR,FEW,0.00,WeatherDisplay:10.37,2015-08-01 07:51:00,
2015-08-01 02:56:00,56.8,50.7,29.98,West,272,0.2,1.6,80,0.00,CLR,FEW,0.00,WeatherDisplay:10.37,2015-08-01 07:56:00,
2015-08-01 03:01:00,56.9,51.1,29.98,WNW,295,0.0,1.2,81,0.00,CLR,FEW,0.00,WeatherDisplay:10.37,2015-08-01 08:01:00,
2015-08-01 03:06:00,57.0,51.2,29.98,NW,304,0.5,2.8,81,0.00,CLR,FEW,0.00,WeatherDisplay:10.37,2015-08-01 08:06:00,
2015-08-01 03:11:00,57.1,51.3,29.98,SSW,208,0.0,0.0,81,0.00,CLR,FEW,0.00,WeatherDisplay:10.37,2015-08-01 08:11:00,
2015-08-01 03:16:00,57.1,51.3,29.98,SW,226,0.0,0.0,81,0.00,CLR,FEW,0.00,WeatherDisplay:10.37,2015-08-01 08:16:00,
2015-08-01 03:21:00,57.1,51.3,29.98,SSW,192,0.0,0.0,81,0.00,CLR,FEW,0.00,WeatherDisplay:10.37,2015-08-01 08:21:00,
2015-08-01 03:26:00,57.0,51.2,29.98,SSW,192,0.0,0.0,81,0.00,CLR,FEW,0.00,WeatherDisplay:10.37,2015-08-01 08:26:00,
2015-08-01 03:31:00,57.1,51.0,29.98,SW,229,0.0,0.0,80,0.00,CLR,FEW,0.00,WeatherDisplay:10.37,2015-08-01 08:31:00,
2015-08-01 03:36:00,56.9,50.8,29.98,West,265,0.0,0.0,80,0.00,CLR,FEW,0.00,WeatherDisplay:10.37,2015-08-01 08:36:00,
2015-08-01 03:41:00,56.7,50.6,29.98,West,265,0.0,0.0,80,0.00,CLR,FEW,0.00,WeatherDisplay:10.37,2015-08-01 08:41:00,
2015-08-01 03:46:00,56.7,50.6,29.98,West,265,0.0,0.0,80,0.00,CLR,FEW,0.00,WeatherDisplay:10.37,2015-08-01 08:46:00,
2015-08-01 03:51:00,56.6,50.8,29.98,SSW,195,0.0,1.2,81,0.00,CLR,FEW,0.00,WeatherDisplay:10.37,2015-08-01 08:51:00,
2015-08-01 03:56:00,56.6,51.2,29.98,SSW,199,0.1,0.4,82,0.00,CLR,FEW,0.00,WeatherDisplay:10.37,2015-08-01 08:56:00,
2015-08-01 04:01:00,56.5,51.1,29.98,WSW,250,0.1,1.2,82,0.00,CLR,FEW,0.00,WeatherDisplay:10.37,2015-08-01 09:01:00,
2015-08-01 04:06:00,56.6,51.2,29.98,WSW,250,0.0,0.0,82,0.00,CLR,FEW,0.00,WeatherDisplay:10.37,2015-08-01 09:06:00,
2015-08-01 04:11:00,56.5,51.1,29.98,WSW,250,0.0,0.0,82,0.00,CLR,FEW,0.00,WeatherDisplay:10.37,2015-08-01 09:11:00,
2015-08-01 04:16:00,56.3,50.9,29.98,WNW,284,0.0,0.0,82,0.00,CLR,FEW,0.00,WeatherDisplay:10.37,2015-08-01 09:16:00,
2015-08-01 04:21:00,56.2,50.4,29.98,WNW,284,0.0,0.0,81,0.00,CLR,FEW,0.00,WeatherDisplay:10.37,2015-08-01 09:21:00,
2015-08-01 04:26:00,56.1,50.7,29.97,WNW,284,0.0,0.0,82,0.00,CLR,FEW,0.00,WeatherDisplay:10.37,2015-08-01 09:26:00,
2015-08-01 04:31:00,56.2,50.8,29.97,NNW,344,0.1,1.2,82,0.00,CLR,FEW,0.00,WeatherDisplay:10.37,2015-08-01 09:31:00,
2015-08-01 04:36:00,56.1,51.0,29.97,WSW,256,0.0,1.2,83,0.00,CLR,FEW,0.00,WeatherDisplay:10.37,2015-08-01 09:36:00,
2015-08-01 04:41:00,56.2,51.1,29.97,WNW,287,1.3,1.8,83,0.00,CLR,FEW,0.00,WeatherDisplay:10.37,2015-08-01 09:41:00,
2015-08-01 04:46:00,56.3,51.5,29.97,SSW,205,0.0,0.0,84,0.00,CLR,FEW,0.00,WeatherDisplay:10.37,2015-08-01 09:46:00,
2015-08-01 04:51:00,56.4,51.6,29.97,SSW,200,0.2,0.0,84,0.00,CLR,FEW,0.00,WeatherDisplay:10.37,2015-08-01 09:51:00,
2015-08-01 04:56:00,56.6,51.8,29.97,SSW,209,0.0,0.0,84,0.00,CLR,FEW,0.00,WeatherDisplay:10.37,2015-08-01 09:56:00,
2015-08-01 05:01:00,56.6,51.8,29.97,SSW,209,0.0,0.0,84,0.00,CLR,FEW,0.00,WeatherDisplay:10.37,2015-08-01 10:01:00,
2015-08-01 05:06:00,56.5,51.7,29.96,SSW,209,0.0,0.0,84,0.00,CLR,FEW,0.00,WeatherDisplay:10.37,2015-08-01 10:06:00,
2015-08-01 05:11:00,56.4,51.3,29.96,SSW,209,0.0,0.0,83,0.00,CLR,FEW,0.00,WeatherDisplay:10.37,2015-08-01 10:11:00,
2015-08-01 05:16:00,56.2,51.4,29.96,SSW,209,0.0,0.0,84,0.00,CLR,FEW,0.00,WeatherDisplay:10.37,2015-08-01 10:16:00,
2015-08-01 05:21:00,56.2,51.4,29.96,SSW,209,0.0,0.0,84,0.00,CLR,FEW,0.00,WeatherDisplay:10.37,2015-08-01 10:21:00,
2015-08-01 05:26:00,56.2,51.4,29.97,SSW,209,0.0,0.0,84,0.00,CLR,FEW,0.00,WeatherDisplay:10.37,2015-08-01 10:26:00,
2015-08-01 05:31:00,56.1,51.3,29.97,SSW,209,0.0,0.0,84,0.00,CLR,FEW,0.00,WeatherDisplay:10.37,2015-08-01 10:31:00,
2015-08-01 05:36:00,56.1,51.3,29.97,SSW,209,0.0,0.0,84,0.00,CLR,FEW,0.00,WeatherDisplay:10.37,2015-08-01 10:36:00,
2015-08-01 05:41:00,56.2,51.7,29.97,SSW,209,0.0,0.0,85,0.00,CLR,FEW,0.00,WeatherDisplay:10.37,2015-08-01 10:41:00,
2015-08-01 05:46:00,56.1,51.7,29.97,SSW,209,0.0,0.0,85,0.00,CLR,FEW,0.00,WeatherDisplay:10.37,2015-08-01 10:46:00,
2015-08-01 05:51:00,56.3,51.8,29.97,SSW,209,0.0,0.0,85,0.00,CLR,FEW,0.00,WeatherDisplay:10.37,2015-08-01 10:51:00,
2015-08-01 05:56:00,56.2,51.7,29.97,SSW,209,0.0,0.0,85,0.00,CLR,FEW,0.00,WeatherDisplay:10.37,2015-08-01 10:56:00,
2015-08-01 06:01:00,56.3,51.8,29.98,SW,220,0.4,1.2,85,0.00,CLR,FEW,0.00,WeatherDisplay:10.37,2015-08-01 11:01:00,
2015-08-01 06:06:00,56.2,51.7,29.98,WSW,247,0.0,0.0,85,0.00,CLR,FEW,0.00,WeatherDisplay:10.37,2015-08-01 11:06:00,
2015-08-01 06:11:00,56.2,51.7,29.98,WSW,247,0.0,0.0,85,0.00,CLR,FEW,0.00,WeatherDisplay:10.37,2015-08-01 11:11:00,
2015-08-01 06:16:00,56.3,51.8,29.98,WSW,247,0.0,0.0,85,0.00,CLR,FEW,0.00,WeatherDisplay:10.37,2015-08-01 11:16:00,
2015-08-01 06:21:00,56.3,52.2,29.98,WSW,247,0.0,0.0,86,0.00,CLR,FEW,0.00,WeatherDisplay:10.37,2015-08-01 11:21:00,
2015-08-01 06:26:00,56.4,52.3,29.98,WSW,247,0.0,0.0,86,0.00,CLR,FEW,0.00,WeatherDisplay:10.37,2015-08-01 11:26:00,
2015-08-01 06:31:00,56.7,52.9,29.98,WSW,251,0.6,1.7,87,0.00,CLR,FEW,0.00,WeatherDisplay:10.37,2015-08-01 11:31:00,
2015-08-01 06:36:00,57.0,53.2,29.98,SSW,208,1.4,2.3,87,0.00,CLR,FEW,0.00,WeatherDisplay:10.37,2015-08-01 11:36:00,
2015-08-01 06:41:00,57.4,53.6,29.98,SSW,199,0.8,1.2,87,0.00,CLR,FEW,0.00,WeatherDisplay:10.37,2015-08-01 11:41:00,
2015-08-01 06:46:00,57.8,54.0,29.98,NW,308,0.0,0.0,87,0.00,CLR,FEW,0.00,WeatherDisplay:10.37,2015-08-01 11:46:00,
2015-08-01 06:51:00,58.1,54.2,29.98,WSW,258,0.5,2.3,87,0.00,CLR,FEW,0.00,WeatherDisplay:10.37,2015-08-01 11:51:00,
2015-08-01 06:56:00,58.5,54.6,29.98,West,260,0.0,0.0,87,0.00,CLR,FEW,0.00,WeatherDisplay:10.37,2015-08-01 11:56:00,
2015-08-01 07:01:00,59.1,55.5,29.98,SW,234,0.4,2.3,88,0.00,CLR,FEW,0.00,WeatherDisplay:10.37,2015-08-01 12:01:00,
2015-08-01 07:06:00,59.7,55.8,29.98,SW,230,1.3,2.3,87,0.00,CLR,FEW,0.00,WeatherDisplay:10.37,2015-08-01 12:06:00,
2015-08-01 07:11:00,60.4,56.2,29.98,SSE,167,0.4,1.2,86,0.00,CLR,FEW,0.00,WeatherDisplay:10.37,2015-08-01 12:11:00,
2015-08-01 07:16:00,61.2,56.7,29.98,North,10,2.3,3.5,85,0.00,CLR,FEW,0.00,WeatherDisplay:10.37,2015-08-01 12:16:00,
2015-08-01 07:21:00,61.9,57.0,29.98,WNW,302,1.8,5.8,84,0.00,CLR,FEW,0.00,WeatherDisplay:10.37,2015-08-01 12:21:00,
2015-08-01 07:26:00,62.9,57.7,29.98,West,275,1.2,2.3,83,0.00,CLR,FEW,0.00,WeatherDisplay:10.37,2015-08-01 12:26:00,
2015-08-01 07:31:00,63.7,58.1,29.98,SW,216,0.6,2.3,82,0.00,CLR,FEW,0.00,WeatherDisplay:10.37,2015-08-01 12:31:00,
2015-08-01 07:36:00,64.5,58.2,29.98,West,261,0.9,2.3,80,0.00,CLR,FEW,0.00,WeatherDisplay:10.37,2015-08-01 12:36:00,
2015-08-01 07:41:00,65.3,58.6,29.98,WNW,294,0.8,3.0,79,0.00,CLR,FEW,0.00,WeatherDisplay:10.37,2015-08-01 12:41:00,
2015-08-01 07:46:00,65.9,58.5,29.98,West,264,0.6,3.5,77,0.00,CLR,FEW,0.00,WeatherDisplay:10.37,2015-08-01 12:46:00,
2015-08-01 07:51:00,66.4,58.6,29.98,WSW,251,0.8,2.3,76,0.00,CLR,FEW,0.00,WeatherDisplay:10.37,2015-08-01 12:51:00,
2015-08-01 07:56:00,67.2,59.0,29.98,NW,315,2.7,6.9,75,0.00,CLR,FEW,0.00,WeatherDisplay:10.37,2015-08-01 12:56:00,
2015-08-01 08:01:00,67.7,58.3,29.98,NNW,330,2.5,4.6,72,0.00,CLR,FEW,0.00,WeatherDisplay:10.37,2015-08-01 13:01:00,
2015-08-01 08:06:00,68.1,58.3,29.98,NW,308,2.0,3.5,71,0.00,CLR,FEW,0.00,WeatherDisplay:10.37,2015-08-01 13:06:00,
2015-08-01 08:11:00,68.4,58.6,29.98,WNW,292,0.9,2.9,71,0.00,CLR,FEW,0.00,WeatherDisplay:10.37,2015-08-01 13:11:00,
2015-08-01 08:16:00,69.0,58.4,29.98,NW,313,1.3,3.5,69,0.00,CLR,FEW,0.00,WeatherDisplay:10.37,2015-08-01 13:16:00,
2015-08-01 08:21:00,69.1,58.1,29.98,WSW,253,0.2,1.2,68,0.00,CLR,FEW,0.00,WeatherDisplay:10.37,2015-08-01 13:21:00,
2015-08-01 08:26:00,69.3,58.3,29.98,WNW,291,3.2,4.5,68,0.00,CLR,FEW,0.00,WeatherDisplay:10.37,2015-08-01 13:26:00,
2015-08-01 08:31:00,69.5,58.5,29.98,West,272,1.8,3.5,68,0.00,CLR,FEW,0.00,WeatherDisplay:10.37,2015-08-01 13:31:00,
2015-08-01 08:36:00,69.6,58.2,29.98,NE,38,1.4,2.3,67,0.00,CLR,FEW,0.00,WeatherDisplay:10.37,2015-08-01 13:36:00,
2015-08-01 08:41:00,69.8,58.8,29.98,WNW,296,0.6,1.2,68,0.00,CLR,FEW,0.00,WeatherDisplay:10.37,2015-08-01 13:41:00,
2015-08-01 08:46:00,70.1,58.6,29.98,West,271,1.9,3.5,67,0.00,CLR,FEW,0.00,WeatherDisplay:10.37,2015-08-01 13:46:00,
2015-08-01 08:51:00,70.3,58.4,29.98,NNW,329,1.1,2.4,66,0.00,CLR,FEW,0.00,WeatherDisplay:10.37,2015-08-01 13:51:00,
2015-08-01 08:56:00,70.5,58.6,29.98,SSW,212,0.1,1.2,66,0.00,CLR,FEW,0.00,WeatherDisplay:10.37,2015-08-01 13:56:00,
2015-08-01 09:01:00,70.6,58.7,29.98,WSW,241,1.4,3.5,66,0.00,CLR,FEW,0.00,WeatherDisplay:10.37,2015-08-01 14:01:00,
2015-08-01 09:06:00,71.0,58.6,29.98,WNW,291,2.2,3.5,65,0.00,CLR,FEW,0.00,WeatherDisplay:10.37,2015-08-01 14:06:00,
2015-08-01 09:11:00,71.4,59.0,29.98,WSW,253,2.2,3.5,65,0.00,CLR,FEW,0.00,WeatherDisplay:10.37,2015-08-01 14:11:00,
2015-08-01 09:16:00,71.4,58.6,29.98,NW,306,0.6,2.3,64,0.00,CLR,FEW,0.00,WeatherDisplay:10.37,2015-08-01 14:16:00,
2015-08-01 09:21:00,71.9,58.6,29.98,NW,308,2.5,4.6,63,0.00,CLR,FEW,0.00,WeatherDisplay:10.37,2015-08-01 14:21:00,
2015-08-01 09:26:00,71.9,58.6,29.98,NW,305,1.8,3.4,63,0.00,CLR,FEW,0.00,WeatherDisplay:10.37,2015-08-01 14:26:00,
2015-08-01 09:31:00,72.2,58.9,29.98,WNW,288,0.3,1.2,63,0.00,CLR,FEW,0.00,WeatherDisplay:10.37,2015-08-01 14:31:00,
2015-08-01 09:36:00,72.6,58.8,29.98,SE,128,1.7,3.5,62,0.00,CLR,FEW,0.00,WeatherDisplay:10.37,2015-08-01 14:36:00,
2015-08-01 09:41:00,72.9,59.1,29.98,NNW,336,0.0,1.2,62,0.00,CLR,FEW,0.00,WeatherDisplay:10.37,2015-08-01 14:41:00,
2015-08-01 09:46:00,73.0,58.3,29.98,SW,229,1.3,3.5,60,0.00,CLR,FEW,0.00,WeatherDisplay:10.37,2015-08-01 14:46:00,
2015-08-01 09:51:00,73.1,58.4,29.98,WNW,298,1.7,4.6,60,0.00,CLR,FEW,0.00,WeatherDisplay:10.37,2015-08-01 14:51:00,
2015-08-01 09:56:00,73.3,58.6,29.99,WNW,287,3.0,4.6,60,0.00,CLR,FEW,0.00,WeatherDisplay:10.37,2015-08-01 14:56:00,
2015-08-01 10:01:00,73.3,58.6,29.99,NW,315,1.2,5.2,60,0.00,CLR,FEW,0.00,WeatherDisplay:10.37,2015-08-01 15:01:00,
2015-08-01 10:06:00,73.1,58.8,29.98,West,275,1.2,2.3,61,0.00,CLR,FEW,0.00,WeatherDisplay:10.37,2015-08-01 15:06:00,
2015-08-01 10:11:00,73.2,58.9,29.98,North,357,1.7,2.7,61,0.00,CLR,FEW,0.00,WeatherDisplay:10.37,2015-08-01 15:11:00,
2015-08-01 10:16:00,73.6,59.3,29.98,NNW,329,0.0,0.0,61,0.00,CLR,FEW,0.00,WeatherDisplay:10.37,2015-08-01 15:16:00,
2015-08-01 10:21:00,73.9,59.1,29.98,WSW,244,0.2,1.2,60,0.00,CLR,FEW,0.00,WeatherDisplay:10.37,2015-08-01 15:21:00,
2015-08-01 10:26:00,74.2,59.4,29.97,South,181,0.0,1.2,60,0.00,CLR,FEW,0.00,WeatherDisplay:10.37,2015-08-01 15:26:00,
2015-08-01 10:31:00,74.5,59.2,29.97,NW,326,0.6,2.3,59,0.00,CLR,FEW,0.00,WeatherDisplay:10.37,2015-08-01 15:31:00,
2015-08-01 10:36:00,74.9,58.1,29.98,NE,54,0.5,1.2,56,0.00,CLR,FEW,0.00,WeatherDisplay:10.37,2015-08-01 15:36:00,
2015-08-01 10:41:00,75.1,57.3,29.98,West,275,1.3,3.5,54,0.00,CLR,FEW,0.00,WeatherDisplay:10.37,2015-08-01 15:41:00,
2015-08-01 10:46:00,75.5,57.2,29.98,NNE,25,0.9,2.5,53,0.00,CLR,FEW,0.00,WeatherDisplay:10.37,2015-08-01 15:46:00,
2015-08-01 10:51:00,75.7,56.8,29.98,North,10,0.5,1.6,52,0.00,CLR,FEW,0.00,WeatherDisplay:10.37,2015-08-01 15:51:00,
2015-08-01 10:56:00,75.9,57.0,29.98,NW,315,1.3,2.3,52,0.00,CLR,FEW,0.00,WeatherDisplay:10.37,2015-08-01 15:56:00,
2015-08-01 11:01:00,76.0,57.1,29.98,North,11,1.3,3.5,52,0.00,CLR,FEW,0.00,WeatherDisplay:10.37,2015-08-01 16:01:00,
2015-08-01 11:06:00,75.9,57.0,29.98,NW,305,0.2,1.2,52,0.00,CLR,FEW,0.00,WeatherDisplay:10.37,2015-08-01 16:06:00,
2015-08-01 11:11:00,76.0,54.9,29.98,West,270,0.5,2.0,48,0.00,CLR,FEW,0.00,WeatherDisplay:10.37,2015-08-01 16:11:00,
2015-08-01 11:16:00,76.1,55.5,29.98,West,277,1.3,2.7,49,0.00,CLR,FEW,0.00,WeatherDisplay:10.37,2015-08-01 16:16:00,
2015-08-01 11:21:00,76.3,54.6,29.98,West,271,1.1,3.5,47,0.00,CLR,FEW,0.00,WeatherDisplay:10.37,2015-08-01 16:21:00,
2015-08-01 11:26:00,76.4,55.3,29.97,NE,37,2.0,5.8,48,0.00,CLR,FEW,0.00,WeatherDisplay:10.37,2015-08-01 16:26:00,
2015-08-01 11:31:00,76.5,54.2,29.97,SE,141,0.8,3.4,46,0.00,CLR,FEW,0.00,WeatherDisplay:10.37,2015-08-01 16:31:00,
2015-08-01 11:36:00,76.7,55.0,29.97,West,268,0.9,3.7,47,0.00,CLR,FEW,0.00,WeatherDisplay:10.37,2015-08-01 16:36:00,
2015-08-01 11:41:00,76.9,55.1,29.97,WSW,248,1.0,2.3,47,0.00,CLR,FEW,0.00,WeatherDisplay:10.37,2015-08-01 16:41:00,
2015-08-01 11:46:00,77.1,54.7,29.97,SSE,158,0.0,0.0,46,0.00,CLR,FEW,0.00,WeatherDisplay:10.37,2015-08-01 16:46:00,
2015-08-01 11:51:00,77.1,54.1,29.97,NW,326,2.7,4.6,45,0.00,CLR,FEW,0.00,WeatherDisplay:10.37,2015-08-01 16:51:00,
2015-08-01 11:56:00,77.3,54.9,29.97,WSW,239,2.5,3.5,46,0.00,CLR,FEW,0.00,WeatherDisplay:10.37,2015-08-01 16:56:00,
2015-08-01 12:01:00,77.4,55.6,29.97,East,97,0.9,1.1,47,0.00,CLR,FEW,0.00,WeatherDisplay:10.37,2015-08-01 17:01:00,
2015-08-01 12:06:00,78.0,55.5,29.96,SW,233,0.5,2.4,46,0.00,CLR,FEW,0.00,WeatherDisplay:10.37,2015-08-01 17:06:00,
2015-08-01 12:11:00,78.0,54.9,29.96,NE,35,2.4,6.9,45,0.00,CLR,FEW,0.00,WeatherDisplay:10.37,2015-08-01 17:11:00,
2015-08-01 12:16:00,78.2,55.7,29.96,South,174,2.3,5.8,46,0.00,CLR,FEW,0.00,WeatherDisplay:10.37,2015-08-01 17:16:00,
2015-08-01 12:21:00,78.5,56.0,29.96,NW,309,2.5,4.6,46,0.00,CLR,FEW,0.00,WeatherDisplay:10.37,2015-08-01 17:21:00,
2015-08-01 12:26:00,78.8,56.3,29.96,NNE,17,1.2,3.5,46,0.00,CLR,FEW,0.00,WeatherDisplay:10.37,2015-08-01 17:26:00,
2015-08-01 12:32:00,79.0,56.5,29.95,WSW,237,0.3,2.3,46,0.00,CLR,FEW,0.00,WeatherDisplay:10.37,2015-08-01 17:32:00,
2015-08-01 12:37:00,79.2,56.6,29.95,SW,220,2.2,4.6,46,0.00,CLR,FEW,0.00,WeatherDisplay:10.37,2015-08-01 17:37:00,
2015-08-01 12:42:00,79.5,56.9,29.95,SSE,148,4.2,6.9,46,0.00,CLR,FEW,0.00,WeatherDisplay:10.37,2015-08-01 17:42:00,
2015-08-01 12:47:00,79.9,57.3,29.95,WSW,248,2.3,3.5,46,0.00,CLR,FEW,0.00,WeatherDisplay:10.37,2015-08-01 17:47:00,
2015-08-01 12:52:00,80.4,57.7,29.95,NNW,329,1.9,5.8,46,0.00,CLR,FEW,0.00,WeatherDisplay:10.37,2015-08-01 17:52:00,
2015-08-01 12:57:00,80.7,58.0,29.95,SSE,162,1.3,3.5,46,0.00,CLR,FEW,0.00,WeatherDisplay:10.37,2015-08-01 17:57:00,
2015-08-01 13:02:00,81.4,58.6,29.95,SSW,196,0.7,1.2,46,0.00,CLR,FEW,0.00,WeatherDisplay:10.37,2015-08-01 18:02:00,
2015-08-01 13:07:00,81.6,58.8,29.94,SSW,206,1.0,5.8,46,0.00,CLR,FEW,0.00,WeatherDisplay:10.37,2015-08-01 18:07:00,
2015-08-01 13:12:00,82.0,58.6,29.94,South,182,3.1,6.9,45,0.00,CLR,FEW,0.00,WeatherDisplay:10.37,2015-08-01 18:12:00,
2015-08-01 13:17:00,82.4,58.3,29.94,NW,311,2.5,5.8,44,0.00,CLR,FEW,0.00,WeatherDisplay:10.37,2015-08-01 18:17:00,
2015-08-01 13:22:00,82.4,58.9,29.94,WNW,296,2.8,3.5,45,0.00,CLR,FEW,0.00,WeatherDisplay:10.37,2015-08-01 18:22:00,
2015-08-01 13:27:00,82.3,59.4,29.94,NE,34,3.3,5.8,46,0.00,CLR,FEW,0.00,WeatherDisplay:10.37,2015-08-01 18:27:00,
2015-08-01 13:32:00,82.4,59.5,29.94,SSW,199,5.5,5.9,46,0.00,CLR,FEW,0.00,WeatherDisplay:10.37,2015-08-01 18:32:00,
2015-08-01 13:37:00,82.8,59.9,29.93,SW,230,3.9,8.1,46,0.00,CLR,FEW,0.00,WeatherDisplay:10.37,2015-08-01 18:37:00,
2015-08-01 13:42:00,83.5,60.5,29.93,WNW,301,0.9,5.8,46,0.00,CLR,FEW,0.00,WeatherDisplay:10.37,2015-08-01 18:42:00,
2015-08-01 13:47:00,83.8,59.6,29.93,West,280,2.8,8.1,44,0.00,CLR,FEW,0.00,WeatherDisplay:10.37,2015-08-01 18:47:00,
2015-08-01 13:52:00,83.9,60.3,29.93,SW,215,1.8,4.6,45,0.00,CLR,FEW,0.00,WeatherDisplay:10.37,2015-08-01 18:52:00,
2015-08-01 13:57:00,83.9,60.3,29.93,NW,308,0.4,2.3,45,0.00,CLR,FEW,0.00,WeatherDisplay:10.37,2015-08-01 18:57:00,
2015-08-01 14:02:00,84.2,61.2,29.93,North,0,3.3,3.7,46,0.00,CLR,FEW,0.00,WeatherDisplay:10.37,2015-08-01 19:02:00,
2015-08-01 14:07:00,85.0,61.3,29.93,West,263,2.2,10.4,45,0.00,CLR,FEW,0.00,WeatherDisplay:10.37,2015-08-01 19:07:00,
2015-08-01 14:12:00,85.7,60.6,29.93,NNW,332,3.9,6.4,43,0.00,CLR,FEW,0.00,WeatherDisplay:10.37,2015-08-01 19:12:00,
2015-08-01 14:17:00,85.8,61.4,29.93,WNW,298,1.8,7.1,44,0.00,CLR,FEW,0.00,WeatherDisplay:10.37,2015-08-01 19:17:00,
2015-08-01 14:22:00,86.4,61.3,29.92,SW,236,2.5,5.8,43,0.00,CLR,FEW,0.00,WeatherDisplay:10.37,2015-08-01 19:22:00,
2015-08-01 14:27:00,86.9,60.4,29.92,WNW,289,3.5,8.4,41,0.00,CLR,FEW,0.00,WeatherDisplay:10.37,2015-08-01 19:27:00,
2015-08-01 14:32:00,86.7,60.9,29.92,West,260,2.6,5.8,42,0.00,CLR,FEW,0.00,WeatherDisplay:10.37,2015-08-01 19:32:00,
2015-08-01 14:37:00,87.1,60.5,29.92,WNW,291,1.9,6.9,41,0.00,CLR,FEW,0.00,WeatherDisplay:10.37,2015-08-01 19:37:00,
2015-08-01 14:42:00,87.4,60.1,29.92,NNW,337,3.8,8.1,40,0.00,CLR,FEW,0.00,WeatherDisplay:10.37,2015-08-01 19:42:00,
2015-08-01 14:47:00,87.8,60.5,29.92,NNW,328,5.0,8.2,40,0.00,CLR,FEW,0.00,WeatherDisplay:10.37,2015-08-01 19:47:00,
2015-08-01 14:52:00,88.1,58.6,29.92,WNW,291,6.1,10.4,37,0.00,CLR,FEW,0.00,WeatherDisplay:10.37,2015-08-01 19:52:00,
2015-08-01 14:57:00,88.0,59.2,29.92,WSW,241,5.1,11.5,38,0.00,CLR,FEW,0.00,WeatherDisplay:10.37,2015-08-01 19:57:00,
2015-08-01 15:02:00,88.2,59.4,29.91,West,263,4.5,4.6,38,0.00,CLR,FEW,0.00,WeatherDisplay:10.37,2015-08-01 20:02:00,
2015-08-01 15:07:00,88.4,58.8,29.91,West,263,5.5,5.8,37,0.00,CLR,FEW,0.00,WeatherDisplay:10.37,2015-08-01 20:07:00,
2015-08-01 15:12:00,88.4,59.6,29.91,WNW,288,4.1,9.2,38,0.00,CLR,FEW,0.00,WeatherDisplay:10.37,2015-08-01 20:12:00,
2015-08-01 15:17:00,88.8,59.2,29.91,WSW,239,2.8,8.1,37,0.00,CLR,FEW,0.00,WeatherDisplay:10.37,2015-08-01 20:17:00,
2015-08-01 15:22:00,88.9,58.5,29.91,SW,232,0.4,4.6,36,0.00,CLR,FEW,0.00,WeatherDisplay:10.37,2015-08-01 20:22:00,
2015-08-01 15:27:00,88.8,58.4,29.91,SW,224,4.1,4.6,36,0.00,CLR,FEW,0.00,WeatherDisplay:10.37,2015-08-01 20:27:00,
2015-08-01 15:32:00,88.7,58.3,29.91,WNW,284,5.6,6.9,36,0.00,CLR,FEW,0.00,WeatherDisplay:10.37,2015-08-01 20:32:00,
2015-08-01 15:37:00,88.6,58.2,29.91,NW,305,2.3,10.4,36,0.00,CLR,FEW,0.00,WeatherDisplay:10.37,2015-08-01 20:37:00,
2015-08-01 15:42:00,88.9,58.5,29.92,NW,318,4.2,8.3,36,0.00,CLR,FEW,0.00,WeatherDisplay:10.37,2015-08-01 20:42:00,
2015-08-01 15:47:00,89.0,57.8,29.91,WNW,295,2.3,5.9,35,0.00,CLR,FEW,0.00,WeatherDisplay:10.37,2015-08-01 20:47:00,
2015-08-01 15:52:00,89.3,58.1,29.92,WSW,254,3.6,8.7,35,0.00,CLR,FEW,0.00,WeatherDisplay:10.37,2015-08-01 20:52:00,
2015-08-01 15:57:00,89.1,58.7,29.91,NW,326,2.0,3.5,36,0.00,CLR,FEW,0.00,WeatherDisplay:10.37,2015-08-01 20:57:00,
2015-08-01 16:02:00,89.0,57.8,29.91,NNW,335,3.0,6.9,35,0.00,CLR,FEW,0.00,WeatherDisplay:10.37,2015-08-01 21:02:00,
2015-08-01 16:07:00,88.7,57.5,29.91,North,350,2.1,6.9,35,0.00,CLR,FEW,0.00,WeatherDisplay:10.37,2015-08-01 21:07:00,
2015-08-01 16:12:00,88.6,58.2,29.91,WSW,254,2.7,6.9,36,0.00,CLR,FEW,0.00,WeatherDisplay:10.37,2015-08-01 21:12:00,
2015-08-01 16:17:00,88.6,57.4,29.91,NW,309,3.1,5.8,35,0.00,CLR,FEW,0.00,WeatherDisplay:10.37,2015-08-01 21:17:00,
2015-08-01 16:22:00,88.4,57.3,29.91,SSW,198,3.0,4.6,35,0.00,CLR,FEW,0.00,WeatherDisplay:10.37,2015-08-01 21:22:00,
2015-08-01 16:27:00,88.2,57.9,29.91,WNW,289,2.9,5.8,36,0.00,CLR,FEW,0.00,WeatherDisplay:10.37,2015-08-01 21:27:00,
2015-08-01 16:32:00,88.5,58.1,29.91,West,264,3.0,5.8,36,0.00,CLR,FEW,0.00,WeatherDisplay:10.37,2015-08-01 21:32:00,
2015-08-01 16:37:00,88.6,58.2,29.91,WNW,301,3.2,4.7,36,0.00,CLR,FEW,0.00,WeatherDisplay:10.37,2015-08-01 21:37:00,
2015-08-01 16:42:00,88.7,58.3,29.91,West,280,2.9,5.8,36,0.00,CLR,FEW,0.00,WeatherDisplay:10.37,2015-08-01 21:42:00,
2015-08-01 16:47:00,88.8,57.6,29.91,WSW,253,2.0,3.5,35,0.00,CLR,FEW,0.00,WeatherDisplay:10.37,2015-08-01 21:47:00,
2015-08-01 16:52:00,88.6,59.0,29.91,SSW,200,2.1,4.6,37,0.00,CLR,FEW,0.00,WeatherDisplay:10.37,2015-08-01 21:52:00,
2015-08-01 16:57:00,88.6,59.0,29.91,SSW,195,1.3,3.5,37,0.00,CLR,FEW,0.00,WeatherDisplay:10.37,2015-08-01 21:57:00,
2015-08-01 17:02:00,88.0,58.5,29.91,NW,306,1.9,8.1,37,0.00,CLR,FEW,0.00,WeatherDisplay:10.37,2015-08-01 22:02:00,
2015-08-01 17:07:00,87.1,58.4,29.90,West,280,3.4,5.8,38,0.00,CLR,FEW,0.00,WeatherDisplay:10.37,2015-08-01 22:07:00,
2015-08-01 17:12:00,86.2,58.3,29.91,WSW,241,1.9,3.5,39,0.00,CLR,FEW,0.00,WeatherDisplay:10.37,2015-08-01 22:12:00,
2015-08-01 17:17:00,85.5,58.4,29.90,WNW,298,2.6,3.5,40,0.00,CLR,FEW,0.00,WeatherDisplay:10.37,2015-08-01 22:17:00,
2015-08-01 17:22:00,85.0,58.7,29.90,NNW,344,1.4,5.8,41,0.00,CLR,FEW,0.00,WeatherDisplay:10.37,2015-08-01 22:22:00,
2015-08-01 17:27:00,84.6,57.6,29.90,NW,313,3.8,8.1,40,0.00,CLR,FEW,0.00,WeatherDisplay:10.37,2015-08-01 22:27:00,
2015-08-01 17:32:00,84.2,57.9,29.90,WNW,288,1.0,2.3,41,0.00,CLR,FEW,0.00,WeatherDisplay:10.37,2015-08-01 22:32:00,
2015-08-01 17:37:00,83.9,58.3,29.89,NW,304,2.0,4.6,42,0.00,CLR,FEW,0.00,WeatherDisplay:10.37,2015-08-01 22:37:00,
2015-08-01 17:42:00,83.6,58.1,29.89,NW,315,1.5,3.5,42,0.00,CLR,FEW,0.00,WeatherDisplay:10.37,2015-08-01 22:42:00,
2015-08-01 17:47:00,83.4,59.2,29.89,WSW,239,1.7,4.6,44,0.00,CLR,FEW,0.00,WeatherDisplay:10.37,2015-08-01 22:47:00,
2015-08-01 17:52:00,83.3,58.5,29.89,WNW,296,1.9,3.5,43,0.00,CLR,FEW,0.00,WeatherDisplay:10.37,2015-08-01 22:52:00,
2015-08-01 17:57:00,82.9,58.1,29.89,NW,319,3.5,5.8,43,0.00,CLR,FEW,0.00,WeatherDisplay:10.37,2015-08-01 22:57:00,
2015-08-01 18:02:00,82.6,57.8,29.89,WSW,257,1.4,2.9,43,0.00,CLR,FEW,0.00,WeatherDisplay:10.37,2015-08-01 23:02:00,
2015-08-01 18:07:00,82.5,57.7,29.89,WSW,239,3.0,4.6,43,0.00,CLR,FEW,0.00,WeatherDisplay:10.37,2015-08-01 23:07:00,
2015-08-01 18:12:00,82.4,57.7,29.89,West,271,3.9,5.8,43,0.00,CLR,FEW,0.00,WeatherDisplay:10.37,2015-08-01 23:12:00,
2015-08-01 18:17:00,82.1,58.0,29.88,SE,145,3.1,5.8,44,0.00,CLR,FEW,0.00,WeatherDisplay:10.37,2015-08-01 23:17:00,
2015-08-01 18:22:00,82.0,57.9,29.88,WSW,251,1.9,5.6,44,0.00,CLR,FEW,0.00,WeatherDisplay:10.37,2015-08-01 23:22:00,
2015-08-01 18:27:00,81.7,57.7,29.88,WNW,299,2.6,4.6,44,0.00,CLR,FEW,0.00,WeatherDisplay:10.37,2015-08-01 23:27:00,
2015-08-01 18:32:00,81.4,57.4,29.88,West,278,2.9,4.6,44,0.00,CLR,FEW,0.00,WeatherDisplay:10.37,2015-08-01 23:32:00,
2015-08-01 18:37:00,81.3,57.3,29.88,WSW,246,3.5,6.2,44,0.00,CLR,FEW,0.00,WeatherDisplay:10.37,2015-08-01 23:37:00,
2015-08-01 18:42:00,81.0,56.4,29.88,SE,133,2.3,4.6,43,0.00,CLR,FEW,0.00,WeatherDisplay:10.37,2015-08-01 23:42:00,
2015-08-01 18:47:00,80.8,56.2,29.88,West,278,1.7,4.6,43,0.00,CLR,FEW,0.00,WeatherDisplay:10.37,2015-08-01 23:47:00,
2015-08-01 18:52:00,80.7,56.8,29.88,WSW,246,1.7,3.5,44,0.00,CLR,FEW,0.00,WeatherDisplay:10.37,2015-08-01 23:52:00,
2015-08-01 18:57:00,80.5,56.6,29.88,South,189,0.0,0.0,44,0.00,CLR,FEW,0.00,WeatherDisplay:10.37,2015-08-01 23:57:00,
2015-08-01 19:02:00,80.5,57.2,29.88,WNW,295,1.0,1.2,45,0.00,CLR,FEW,0.00,WeatherDisplay:10.37,2015-08-02 00:02:00,
2015-08-01 19:07:00,80.4,57.1,29.88,West,264,0.4,1.9,45,0.00,CLR,FEW,0.00,WeatherDisplay:10.37,2015-08-02 00:07:00,
2015-08-01 19:12:00,80.3,57.6,29.88,WNW,294,0.4,1.2,46,0.00,CLR,FEW,0.00,WeatherDisplay:10.37,2015-08-02 00:12:00,
2015-08-01 19:17:00,80.1,58.0,29.88,SW,229,0.1,1.2,47,0.00,CLR,FEW,0.00,WeatherDisplay:10.37,2015-08-02 00:17:00,
2015-08-01 19:22:00,79.8,58.4,29.87,WSW,250,0.3,1.2,48,0.00,CLR,FEW,0.00,WeatherDisplay:10.37,2015-08-02 00:22:00,
2015-08-01 19:27:00,79.4,58.6,29.88,WSW,250,0.0,0.0,49,0.00,CLR,FEW,0.00,WeatherDisplay:10.37,2015-08-02 00:27:00,
2015-08-01 19:32:00,79.0,58.8,29.88,WSW,250,0.0,0.0,50,0.00,CLR,FEW,0.00,WeatherDisplay:10.37,2015-08-02 00:32:00,
2015-08-01 19:37:00,78.8,58.6,29.87,WSW,250,0.0,0.0,50,0.00,CLR,FEW,0.00,WeatherDisplay:10.37,2015-08-02 00:37:00,
2015-08-01 19:42:00,78.3,59.2,29.87,WSW,250,0.0,0.0,52,0.00,CLR,FEW,0.00,WeatherDisplay:10.37,2015-08-02 00:42:00,
2015-08-01 19:47:00,77.9,59.4,29.87,WSW,250,0.0,0.0,53,0.00,CLR,FEW,0.00,WeatherDisplay:10.37,2015-08-02 00:47:00,
2015-08-01 19:52:00,77.4,58.9,29.87,WSW,250,0.0,0.0,53,0.00,CLR,FEW,0.00,WeatherDisplay:10.37,2015-08-02 00:52:00,
2015-08-01 19:57:00,76.9,59.0,29.87,SW,224,0.2,1.2,54,0.00,CLR,FEW,0.00,WeatherDisplay:10.37,2015-08-02 00:57:00,
2015-08-01 20:02:00,76.5,59.1,29.87,SW,224,0.0,0.0,55,0.00,CLR,FEW,0.00,WeatherDisplay:10.37,2015-08-02 01:02:00,
2015-08-01 20:07:00,76.0,59.2,29.87,SW,224,0.0,0.0,56,0.00,CLR,FEW,0.00,WeatherDisplay:10.37,2015-08-02 01:07:00,
2015-08-01 20:12:00,75.5,58.7,29.87,SW,224,0.0,0.0,56,0.00,CLR,FEW,0.00,WeatherDisplay:10.37,2015-08-02 01:12:00,
2015-08-01 20:17:00,75.0,58.7,29.87,SW,224,0.0,0.0,57,0.00,CLR,FEW,0.00,WeatherDisplay:10.37,2015-08-02 01:17:00,
2015-08-01 20:22:00,74.5,58.8,29.87,SW,224,0.0,0.0,58,0.00,CLR,FEW,0.00,WeatherDisplay:10.37,2015-08-02 01:22:00,
2015-08-01 20:27:00,74.1,59.3,29.87,SW,224,0.0,0.0,60,0.00,CLR,FEW,0.00,WeatherDisplay:10.37,2015-08-02 01:27:00,
2015-08-01 20:32:00,73.5,58.8,29.87,SW,224,0.0,0.0,60,0.00,CLR,FEW,0.00,WeatherDisplay:10.37,2015-08-02 01:32:00,
2015-08-01 20:37:00,73.2,58.5,29.87,SW,224,0.0,0.0,60,0.00,CLR,FEW,0.00,WeatherDisplay:10.37,2015-08-02 01:37:00,
2015-08-01 20:42:00,72.8,59.0,29.87,SW,224,0.0,0.0,62,0.00,CLR,FEW,0.00,WeatherDisplay:10.37,2015-08-02 01:42:00,
2015-08-01 20:47:00,72.3,58.5,29.87,SW,224,0.0,0.0,62,0.00,CLR,FEW,0.00,WeatherDisplay:10.37,2015-08-02 01:47:00,
2015-08-01 20:52:00,71.9,58.6,29.87,SW,224,0.0,0.0,63,0.00,CLR,FEW,0.00,WeatherDisplay:10.37,2015-08-02 01:52:00,
2015-08-01 20:57:00,71.6,58.8,29.87,SW,224,0.0,0.0,64,0.00,CLR,FEW,0.00,WeatherDisplay:10.37,2015-08-02 01:57:00,
2015-08-01 21:02:00,71.0,57.8,29.87,SW,224,0.0,0.0,63,0.00,CLR,FEW,0.00,WeatherDisplay:10.37,2015-08-02 02:02:00,
2015-08-01 21:07:00,70.7,58.4,29.87,SW,224,0.0,0.0,65,0.00,CLR,FEW,0.00,WeatherDisplay:10.37,2015-08-02 02:07:00,
2015-08-01 21:12:00,70.5,58.6,29.87,SW,224,0.0,0.0,66,0.00,CLR,FEW,0.00,WeatherDisplay:10.37,2015-08-02 02:12:00,
2015-08-01 21:17:00,70.2,58.7,29.87,SW,224,0.0,0.0,67,0.00,CLR,FEW,0.00,WeatherDisplay:10.37,2015-08-02 02:17:00,
2015-08-01 21:22:00,69.9,58.4,29.87,SW,224,0.0,0.0,67,0.00,CLR,FEW,0.00,WeatherDisplay:10.37,2015-08-02 02:22:00,
2015-08-01 21:27:00,69.6,58.2,29.87,SW,224,0.0,0.0,67,0.00,CLR,FEW,0.00,WeatherDisplay:10.37,2015-08-02 02:27:00,
2015-08-01 21:32:00,69.4,58.0,29.87,SW,224,0.0,0.0,67,0.00,CLR,FEW,0.00,WeatherDisplay:10.37,2015-08-02 02:32:00,
2015-08-01 21:37:00,69.1,58.1,29.87,SW,224,0.0,0.0,68,0.00,CLR,FEW,0.00,WeatherDisplay:10.37,2015-08-02 02:37:00,
2015-08-01 21:42:00,68.6,58.4,29.87,SW,224,0.0,0.0,70,0.00,CLR,FEW,0.00,WeatherDisplay:10.37,2015-08-02 02:42:00,
2015-08-01 21:47:00,68.5,58.7,29.87,SW,224,0.0,0.0,71,0.00,CLR,FEW,0.00,WeatherDisplay:10.37,2015-08-02 02:47:00,
2015-08-01 21:52:00,68.4,59.0,29.87,SW,224,0.0,0.0,72,0.00,CLR,FEW,0.00,WeatherDisplay:10.37,2015-08-02 02:52:00,
2015-08-01 21:57:00,68.2,58.0,29.86,SW,224,0.0,0.0,70,0.00,CLR,FEW,0.00,WeatherDisplay:10.37,2015-08-02 02:57:00,
2015-08-01 22:02:00,68.0,57.8,29.86,SW,224,0.0,0.0,70,0.00,CLR,FEW,0.00,WeatherDisplay:10.37,2015-08-02 03:02:00,
2015-08-01 22:07:00,67.7,57.6,29.86,SW,224,0.0,0.0,70,0.00,CLR,FEW,0.00,WeatherDisplay:10.37,2015-08-02 03:07:00,
2015-08-01 22:12:00,67.4,57.3,29.86,SW,224,0.0,0.0,70,0.00,CLR,FEW,0.00,WeatherDisplay:10.37,2015-08-02 03:12:00,